Time;durP1;ratioP1;P1;durP2;ratioP2;P2;SDS_P1;SDS_P2;PMS_P1;PMS_P2;Temp;Humidity;BMP_temperature;BMP_pressure;BME280_temperature;BME280_humidity;BME280_pressure;Samples;Min_cycle;Max_cycle;Signal;HPM_P1;HPM_P2
2022/07/17 00:01:09;;;;;;;3.10;1.10;;;;;;;16.13;96.32;99952.66;4992324;28;20658;-78
2022/07/17 00:03:37;;;;;;;1.83;1.03;;;;;;;16.20;95.79;99954.72;4992517;28;20203;-78
2022/07/17 00:06:07;;;;;;;2.03;0.90;;;;;;;16.04;96.45;99951.50;4985781;28;20207;-79
2022/07/17 00:08:36;;;;;;;3.47;1.07;;;;;;;15.86;97.80;99959.06;4988828;28;20229;-78
2022/07/17 00:11:04;;;;;;;2.40;1.37;;;;;;;15.83;98.44;99958.44;4988604;28;20278;-79
2022/07/17 00:13:32;;;;;;;4.77;1.13;;;;;;;15.88;98.92;99958.94;4992216;28;20195;-78
2022/07/17 00:16:00;;;;;;;2.97;1.20;;;;;;;15.91;97.80;99964.91;4990704;28;20285;-78
2022/07/17 00:18:29;;;;;;;3.33;1.00;;;;;;;15.92;99.07;99966.63;4992224;28;20211;-78
2022/07/17 00:20:57;;;;;;;1.87;1.10;;;;;;;15.84;99.04;99958.31;4988511;28;20203;-78
2022/07/17 00:23:27;;;;;;;3.20;1.20;;;;;;;15.66;100.00;99959.66;4987975;28;20398;-78
2022/07/17 00:25:55;;;;;;;2.50;1.10;;;;;;;15.62;100.00;99966.16;4989202;28;20199;-78
2022/07/17 00:28:23;;;;;;;2.43;0.90;;;;;;;15.75;100.00;99953.66;4990534;28;20199;-78
2022/07/17 00:30:52;;;;;;;3.87;1.10;;;;;;;15.54;100.00;99965.81;4992036;28;20286;-79
2022/07/17 00:33:20;;;;;;;3.27;1.50;;;;;;;15.66;100.00;99965.84;4985570;28;20214;-79
2022/07/17 00:35:48;;;;;;;3.07;1.10;;;;;;;15.61;100.00;99965.31;4991870;28;20191;-78
2022/07/17 00:38:17;;;;;;;1.23;0.90;;;;;;;15.60;100.00;99965.38;4995907;28;20227;-78
2022/07/17 00:40:47;;;;;;;1.73;1.03;;;;;;;15.36;100.00;99960.00;4991961;28;20278;-78
2022/07/17 00:43:15;;;;;;;4.37;1.30;;;;;;;15.51;100.00;99958.88;4985090;28;20210;-78
2022/07/17 00:45:44;;;;;;;2.73;1.10;;;;;;;15.40;100.00;99964.16;4991583;28;20255;-78
2022/07/17 00:48:12;;;;;;;3.37;1.07;;;;;;;15.36;100.00;99958.19;4991699;28;20195;-78
2022/07/17 00:50:42;;;;;;;3.13;1.10;;;;;;;15.17;100.00;99963.97;4987409;28;20274;-78
2022/07/17 00:53:11;;;;;;;3.07;1.00;;;;;;;15.28;100.00;99957.00;4991615;28;20198;-78
2022/07/17 00:55:41;;;;;;;3.73;1.30;;;;;;;15.25;100.00;99958.09;4983814;28;20203;-78
2022/07/17 00:58:19;;;;;;;3.37;1.00;;;;;;;15.35;100.00;99956.47;4990200;28;20219;-78
2022/07/17 01:00:50;;;;;;;3.20;1.20;;;;;;;15.44;100.00;99947.81;4988749;28;20195;-78
2022/07/17 01:03:21;;;;;;;2.97;1.10;;;;;;;15.20;100.00;99941.53;4995281;28;20206;-78
2022/07/17 01:05:49;;;;;;;5.17;1.50;;;;;;;15.03;100.00;99944.53;4991562;28;20230;-78
2022/07/17 01:08:18;;;;;;;3.50;1.03;;;;;;;14.77;100.00;99947.19;4988640;28;20377;-78
2022/07/17 01:10:47;;;;;;;3.53;1.20;;;;;;;14.79;100.00;99941.75;4991163;28;20199;-78
2022/07/17 01:13:17;;;;;;;3.70;1.13;;;;;;;14.87;100.00;99945.59;4990063;28;20196;-78
2022/07/17 01:15:47;;;;;;;2.53;1.03;;;;;;;14.91;100.00;99948.06;4992140;28;20214;-78
2022/07/17 01:18:15;;;;;;;4.23;1.20;;;;;;;14.69;100.00;99943.34;4991256;28;20272;-78
2022/07/17 01:20:46;;;;;;;3.13;1.23;;;;;;;14.73;100.00;99942.16;4991252;28;20191;-78
2022/07/17 01:23:18;;;;;;;3.97;1.20;;;;;;;14.69;100.00;99943.34;4991229;28;20650;-78
2022/07/17 01:25:47;;;;;;;3.10;1.30;;;;;;;14.56;100.00;99953.97;4991256;28;20203;-78
2022/07/17 01:28:15;;;;;;;2.27;1.20;;;;;;;14.32;100.00;99948.47;4987473;28;20681;-78
2022/07/17 01:30:49;;;;;;;4.27;1.10;;;;;;;14.14;100.00;99947.00;4983155;28;20213;-78
2022/07/17 01:33:19;;;;;;;3.87;1.47;;;;;;;14.02;100.00;99957.53;4985335;28;20195;-78
2022/07/17 01:35:48;;;;;;;4.73;1.20;;;;;;;13.84;100.00;99958.72;4985884;28;20286;-78
2022/07/17 01:38:17;;;;;;;3.47;1.13;;;;;;;13.78;100.00;99955.59;4990771;28;20238;-78
2022/07/17 01:40:46;;;;;;;2.37;1.30;;;;;;;13.63;100.00;99954.78;4990322;28;20693;-78
2022/07/17 01:43:14;;;;;;;4.40;1.40;;;;;;;13.62;100.00;99959.25;4985357;28;20195;-78
2022/07/17 01:45:42;;;;;;;3.33;1.50;;;;;;;13.69;100.00;99962.34;4984275;28;20207;-78
2022/07/17 01:48:11;;;;;;;2.87;1.43;;;;;;;13.67;100.00;99959.78;4985512;28;20249;-78
2022/07/17 01:50:39;;;;;;;2.83;1.17;;;;;;;13.68;100.00;99961.50;4988123;28;20202;-78
2022/07/17 01:53:07;;;;;;;2.47;1.30;;;;;;;13.72;100.00;99956.84;4983173;28;20234;-79
2022/07/17 01:55:37;;;;;;;2.97;1.10;;;;;;;13.83;100.00;99956.16;4995458;28;20664;-78
2022/07/17 01:58:05;;;;;;;3.07;1.40;;;;;;;13.79;100.00;99968.78;4985459;28;20215;-78
2022/07/17 02:00:34;;;;;;;4.27;1.43;;;;;;;13.66;100.00;99962.56;4990984;28;20195;-78
2022/07/17 02:03:03;;;;;;;2.83;1.50;;;;;;;13.84;100.00;99957.88;4986784;28;20202;-78
2022/07/17 02:05:31;;;;;;;3.03;1.20;;;;;;;13.99;100.00;99960.41;4987048;28;20218;-78
2022/07/17 02:07:59;;;;;;;2.33;1.07;;;;;;;14.07;100.00;99959.88;4985883;28;20251;-78
2022/07/17 02:10:28;;;;;;;5.27;1.50;;;;;;;13.93;100.00;99967.94;4987632;28;20203;-78
2022/07/17 02:12:58;;;;;;;3.50;1.30;;;;;;;13.70;100.00;99972.94;4984076;28;20209;-78
2022/07/17 02:15:26;;;;;;;4.10;1.30;;;;;;;13.73;100.00;99966.53;4990325;28;20199;-78
2022/07/17 02:17:54;;;;;;;3.83;1.43;;;;;;;13.68;100.00;99969.50;4990327;28;20272;-78
2022/07/17 02:20:23;;;;;;;4.60;1.40;;;;;;;13.73;100.00;99974.53;4987593;28;20207;-78
2022/07/17 02:22:51;;;;;;;4.67;1.57;;;;;;;13.74;100.00;99971.78;4982775;28;20218;-78
2022/07/17 02:25:20;;;;;;;4.43;1.50;;;;;;;13.73;100.00;99970.06;4987566;28;20282;-78
2022/07/17 02:27:48;;;;;;;3.07;1.50;;;;;;;13.74;100.00;99969.09;4989144;28;20206;-79
2022/07/17 02:30:18;;;;;;;6.50;1.70;;;;;;;13.59;100.00;99972.72;4987501;28;20191;-78
2022/07/17 02:32:47;;;;;;;3.27;1.40;;;;;;;13.48;100.00;99985.00;4990510;28;20208;-79
2022/07/17 02:35:15;;;;;;;3.63;1.40;;;;;;;13.45;100.00;99988.72;4986649;28;20195;-78
2022/07/17 02:37:45;;;;;;;4.60;1.40;;;;;;;13.33;100.00;99993.03;4983426;28;20239;-78
2022/07/17 02:40:13;;;;;;;4.23;1.40;;;;;;;13.31;100.00;99997.56;4987636;28;20210;-79
2022/07/17 02:42:44;;;;;;;6.87;1.70;;;;;;;13.08;100.00;99993.63;4987181;28;20207;-79
2022/07/17 02:45:13;;;;;;;6.07;1.50;;;;;;;13.07;100.00;99994.56;4987451;28;20204;-79
2022/07/17 02:47:42;;;;;;;3.73;1.50;;;;;;;13.15;100.00;99988.78;4980381;28;20587;-78
2022/07/17 02:50:12;;;;;;;4.57;1.20;;;;;;;13.21;100.00;99992.91;4989577;28;20668;-78
2022/07/17 02:52:40;;;;;;;2.80;1.50;;;;;;;13.15;100.00;99988.78;4985821;28;20192;-78
2022/07/17 02:55:09;;;;;;;3.30;1.23;;;;;;;13.07;100.00;99981.28;4990579;28;20214;-79
2022/07/17 02:57:38;;;;;;;1.97;1.07;;;;;;;13.08;100.00;99982.97;4992186;28;20275;-78
2022/07/17 03:00:10;;;;;;;3.50;1.23;;;;;;;12.89;100.00;99980.59;4989654;28;20214;-78
2022/07/17 03:02:39;;;;;;;2.40;1.30;;;;;;;13.04;100.00;99983.28;4971772;28;20200;-78
2022/07/17 03:05:09;;;;;;;2.73;1.30;;;;;;;12.98;100.00;99984.50;4969676;28;20208;-78
2022/07/17 03:07:38;;;;;;;5.43;1.50;;;;;;;12.79;100.00;99992.72;4966031;28;20211;-78
2022/07/17 03:10:08;;;;;;;3.67;1.50;;;;;;;12.74;100.00;99983.28;4966375;28;20212;-79
2022/07/17 03:12:36;;;;;;;3.23;1.73;;;;;;;12.80;100.00;99982.94;4970558;28;20191;-78
2022/07/17 03:15:06;;;;;;;2.93;1.50;;;;;;;12.65;100.00;99984.72;4967506;28;20260;-78
2022/07/17 03:17:34;;;;;;;4.90;1.70;;;;;;;12.62;100.00;99987.53;4956973;28;20196;-78
2022/07/17 03:20:03;;;;;;;5.07;1.67;;;;;;;12.75;100.00;99991.22;4968631;28;20228;-78
2022/07/17 03:22:33;;;;;;;2.63;1.50;;;;;;;12.82;100.00;99987.22;4970400;28;20199;-78
2022/07/17 03:25:01;;;;;;;3.17;1.57;;;;;;;12.82;100.00;99989.00;4971608;28;20211;-78
2022/07/17 03:27:31;;;;;;;3.10;1.60;;;;;;;12.71;100.00;99980.81;4982506;28;20203;-78
2022/07/17 03:29:59;;;;;;;5.10;1.70;;;;;;;12.86;100.00;99971.94;4993235;28;20199;-78
2022/07/17 03:32:28;;;;;;;2.93;1.53;;;;;;;12.85;100.00;99978.22;4990165;28;20203;-78
2022/07/17 03:34:56;;;;;;;5.07;1.63;;;;;;;12.97;100.00;99979.28;4990176;28;20203;-78
2022/07/17 03:37:24;;;;;;;3.23;1.50;;;;;;;12.98;100.00;99979.19;4988308;28;20257;-78
2022/07/17 03:39:55;;;;;;;5.17;1.60;;;;;;;13.22;100.00;99978.66;4986630;28;20234;-78
2022/07/17 03:42:23;;;;;;;4.83;1.80;;;;;;;13.20;100.00;99969.91;4991600;28;20227;-78
2022/07/17 03:44:51;;;;;;;5.20;1.80;;;;;;;13.31;100.00;99976.28;4986473;28;20203;-79
2022/07/17 03:47:20;;;;;;;2.80;1.50;;;;;;;12.94;100.00;99985.63;4984787;28;20199;-78
2022/07/17 03:49:48;;;;;;;4.47;1.57;;;;;;;13.07;100.00;99985.75;4992642;28;20199;-78
2022/07/17 03:52:16;;;;;;;2.50;1.47;;;;;;;12.98;100.00;99992.47;4989790;28;20255;-78
2022/07/17 03:54:44;;;;;;;2.47;1.40;;;;;;;12.86;100.00;99993.22;4989686;28;20191;-78
2022/07/17 03:57:14;;;;;;;3.23;1.30;;;;;;;12.96;100.00;100004.16;4988440;28;20646;-78
2022/07/17 03:59:42;;;;;;;3.67;1.20;;;;;;;12.82;100.00;99999.66;4985926;28;20227;-79
2022/07/17 04:02:11;;;;;;;3.80;1.70;;;;;;;12.69;100.00;99998.69;4992671;28;20203;-78
2022/07/17 04:04:39;;;;;;;3.77;1.40;;;;;;;12.67;100.00;100001.44;4988232;28;20210;-78
2022/07/17 04:07:26;;;;;;;3.27;1.40;;;;;;;12.67;100.00;99997.91;4990823;28;20207;-78
2022/07/17 04:09:57;;;;;;;5.20;1.50;;;;;;;12.98;100.00;99999.59;4992596;28;20226;-78
2022/07/17 04:12:27;;;;;;;4.67;1.50;;;;;;;12.88;100.00;100010.78;4988422;28;20278;-78
2022/07/17 04:14:56;;;;;;;3.60;1.50;;;;;;;12.92;100.00;99995.50;4991846;28;20203;-78
2022/07/17 04:17:24;;;;;;;5.40;1.60;;;;;;;13.01;100.00;100002.06;4992279;28;20210;-78
2022/07/17 04:19:52;;;;;;;3.53;1.50;;;;;;;13.14;100.00;100001.25;4988234;28;20230;-78
2022/07/17 04:22:20;;;;;;;3.50;1.60;;;;;;;13.11;100.00;100008.53;4992085;28;20200;-78
2022/07/17 04:24:49;;;;;;;4.07;1.50;;;;;;;13.12;100.00;100012.91;4984093;28;20199;-79
2022/07/17 04:27:18;;;;;;;3.97;1.63;;;;;;;12.85;100.00;100010.13;4988904;28;20211;-78
2022/07/17 04:29:47;;;;;;;3.77;1.40;;;;;;;12.85;100.00;100012.78;4986804;28;20264;-79
2022/07/17 04:32:16;;;;;;;2.53;1.40;;;;;;;12.68;100.00;100016.44;4991972;28;20222;-78
2022/07/17 04:34:44;;;;;;;3.63;1.43;;;;;;;12.65;100.00;100013.97;4987307;28;20207;-78
2022/07/17 04:37:12;;;;;;;3.13;1.60;;;;;;;12.76;100.00;100023.97;4988862;28;20250;-78
2022/07/17 04:39:40;;;;;;;3.33;1.50;;;;;;;12.84;100.00;100019.91;4991685;28;20215;-78
2022/07/17 04:42:08;;;;;;;3.10;1.20;;;;;;;12.94;100.00;100030.00;4986972;28;20202;-78
2022/07/17 04:44:37;;;;;;;4.43;1.63;;;;;;;12.77;100.00;100031.84;4988827;28;20203;-78
2022/07/17 04:47:07;;;;;;;2.57;1.40;;;;;;;12.84;100.00;100040.31;4991645;28;20203;-78
2022/07/17 04:49:35;;;;;;;4.50;1.33;;;;;;;13.07;100.00;100041.59;4986299;28;20195;-78
2022/07/17 04:52:03;;;;;;;2.80;1.40;;;;;;;13.20;100.00;100050.56;4988773;28;20278;-78
2022/07/17 04:54:31;;;;;;;2.03;1.30;;;;;;;13.11;100.00;100049.28;4991727;28;20203;-78
2022/07/17 04:57:00;;;;;;;2.87;1.10;;;;;;;13.21;100.00;100046.97;4986668;28;20198;-79
2022/07/17 04:59:28;;;;;;;4.27;1.30;;;;;;;13.41;100.00;100041.31;4989072;28;20222;-78
2022/07/17 05:01:56;;;;;;;5.60;1.80;;;;;;;13.55;100.00;100048.44;4992680;28;20210;-78
2022/07/17 05:04:26;;;;;;;4.87;1.60;;;;;;;13.52;100.00;100048.63;4985270;28;20206;-78
2022/07/17 05:06:55;;;;;;;3.73;1.33;;;;;;;13.52;100.00;100048.63;4992135;28;20212;-78
2022/07/17 05:09:23;;;;;;;2.57;1.80;;;;;;;13.60;100.00;100048.97;4983527;28;20195;-79
2022/07/17 05:11:53;;;;;;;2.93;1.30;;;;;;;13.56;100.00;100059.94;4987368;28;20195;-78
2022/07/17 05:14:21;;;;;;;6.10;1.80;;;;;;;13.62;100.00;100052.44;4987656;28;20211;-78
2022/07/17 05:16:49;;;;;;;5.00;1.50;;;;;;;13.75;100.00;100049.84;4987504;28;20191;-79
2022/07/17 05:19:18;;;;;;;5.93;1.70;;;;;;;13.80;100.00;100061.06;4990475;28;20276;-78
2022/07/17 05:21:47;;;;;;;3.27;1.33;;;;;;;13.78;100.00;100060.28;4991237;28;20642;-79
2022/07/17 05:24:16;;;;;;;5.13;1.50;;;;;;;13.89;100.00;100059.63;4988244;28;20200;-78
2022/07/17 05:26:44;;;;;;;6.03;1.40;;;;;;;13.88;100.00;100052.56;4989913;28;20187;-79
2022/07/17 05:29:12;;;;;;;4.40;1.60;;;;;;;14.18;100.00;100053.28;4987111;28;20291;-78
2022/07/17 05:31:41;;;;;;;3.00;1.50;;;;;;;14.29;100.00;100052.63;4991009;28;20278;-78
2022/07/17 05:34:09;;;;;;;2.20;1.27;;;;;;;14.39;100.00;100044.88;4987762;28;20199;-78
2022/07/17 05:36:37;;;;;;;3.80;1.63;;;;;;;14.63;100.00;100053.09;5036601;28;20206;-78
2022/07/17 05:39:08;;;;;;;6.33;1.60;;;;;;;14.69;100.00;100055.34;4985609;28;20203;-79
2022/07/17 05:41:36;;;;;;;4.17;1.60;;;;;;;14.79;100.00;100051.97;4989722;28;20203;-78
2022/07/17 05:44:05;;;;;;;5.17;1.40;;;;;;;14.79;100.00;100054.63;4985239;28;20199;-78
2022/07/17 05:46:33;;;;;;;3.60;1.60;;;;;;;14.93;100.00;100059.03;4988168;28;20278;-78
2022/07/17 05:49:02;;;;;;;4.00;1.50;;;;;;;14.89;100.00;100058.38;4980868;28;20203;-78
2022/07/17 05:51:30;;;;;;;3.13;1.57;;;;;;;15.08;100.00;100059.81;4985971;28;20211;-78
2022/07/17 05:54:00;;;;;;;3.53;1.73;;;;;;;15.23;100.00;100058.75;4992143;28;20203;-78
2022/07/17 05:56:30;;;;;;;4.00;1.30;;;;;;;15.34;100.00;100056.19;4988468;28;20377;-78
2022/07/17 05:58:58;;;;;;;4.97;1.60;;;;;;;15.36;100.00;100051.63;4987730;28;20199;-78
2022/07/17 06:01:27;;;;;;;2.73;1.40;;;;;;;15.57;100.00;100049.25;4987330;28;20227;-79
2022/07/17 06:03:55;;;;;;;4.33;1.47;;;;;;;15.56;100.00;100042.22;4990579;28;20227;-78
2022/07/17 06:06:24;;;;;;;3.17;1.57;;;;;;;15.71;100.00;100043.81;4982615;28;20198;-79
2022/07/17 06:08:53;;;;;;;3.30;1.50;;;;;;;15.80;100.00;100039.63;4986967;28;20207;-78
2022/07/17 06:11:21;;;;;;;3.90;1.30;;;;;;;15.94;100.00;100050.22;4982950;28;20195;-79
2022/07/17 06:13:58;;;;;;;5.13;1.50;;;;;;;16.07;100.00;100050.16;4984622;28;20234;-78
2022/07/17 06:16:26;;;;;;;3.00;1.20;;;;;;;16.26;100.00;100050.53;4987727;28;20203;-78
2022/07/17 06:18:55;;;;;;;3.07;1.30;;;;;;;16.45;100.00;100043.84;4997581;28;20228;-79
2022/07/17 06:21:23;;;;;;;2.30;1.13;;;;;;;16.57;100.00;100045.59;4990276;28;20311;-78
2022/07/17 06:23:52;;;;;;;3.90;1.47;;;;;;;16.73;100.00;100048.00;4993858;28;20221;-78
2022/07/17 06:26:21;;;;;;;4.30;1.93;;;;;;;16.78;100.00;100041.31;4990726;28;20203;-79
2022/07/17 06:28:50;;;;;;;4.10;1.57;;;;;;;16.99;100.00;100051.41;4991520;28;20320;-79
2022/07/17 06:31:21;;;;;;;3.07;1.30;;;;;;;16.95;100.00;100057.94;4960321;28;20199;-78
2022/07/17 06:33:49;;;;;;;4.00;1.20;;;;;;;17.17;100.00;100066.03;4990532;28;20209;-79
2022/07/17 06:36:18;;;;;;;4.63;1.67;;;;;;;17.32;100.00;100072.91;4989744;28;20195;-79
2022/07/17 06:38:46;;;;;;;4.13;1.27;;;;;;;17.24;100.00;100075.31;4993281;28;20234;-78
2022/07/17 06:41:14;;;;;;;7.47;1.60;;;;;;;17.43;100.00;100067.56;4987279;28;20302;-79
2022/07/17 06:43:42;;;;;;;4.37;1.43;;;;;;;17.26;100.00;100078.72;4992379;28;20195;-78
2022/07/17 06:46:10;;;;;;;2.47;1.17;;;;;;;17.45;100.00;100084.34;4993513;28;20278;-78
2022/07/17 06:48:40;;;;;;;2.93;1.20;;;;;;;17.60;100.00;100078.78;4989446;28;20681;-79
2022/07/17 06:51:09;;;;;;;3.53;1.30;;;;;;;17.78;100.00;100074.69;4995740;28;20207;-79
2022/07/17 06:53:37;;;;;;;3.40;1.40;;;;;;;17.88;100.00;100082.84;4984080;28;20657;-79
2022/07/17 06:56:05;;;;;;;3.83;1.30;;;;;;;17.95;100.00;100076.88;4997708;28;20491;-78
2022/07/17 06:58:34;;;;;;;3.83;1.30;;;;;;;18.18;100.00;100074.19;4989362;28;20192;-78
2022/07/17 07:01:02;;;;;;;2.27;1.20;;;;;;;18.27;100.00;100073.44;4990392;28;20215;-78
2022/07/17 07:03:30;;;;;;;4.77;1.30;;;;;;;18.47;100.00;100071.81;4994493;28;20203;-78
2022/07/17 07:06:00;;;;;;;3.93;1.30;;;;;;;18.48;100.00;100060.94;4991412;28;20231;-78
2022/07/17 07:08:28;;;;;;;2.73;1.20;;;;;;;18.37;100.00;100054.75;4990664;28;20199;-78
2022/07/17 07:10:56;;;;;;;2.93;1.20;;;;;;;18.30;100.00;100057.94;4993309;28;20282;-78
2022/07/17 07:13:25;;;;;;;3.00;1.30;;;;;;;18.26;100.00;100061.00;4988918;28;20235;-78
2022/07/17 07:15:53;;;;;;;3.30;1.30;;;;;;;18.06;100.00;100059.94;4987568;28;20207;-78
2022/07/17 07:18:22;;;;;;;6.10;1.53;;;;;;;18.49;99.54;100064.47;4993069;28;20259;-78
2022/07/17 07:20:51;;;;;;;5.00;1.50;;;;;;;18.83;95.10;100062.56;4990132;28;20223;-78
2022/07/17 07:23:20;;;;;;;3.93;1.10;;;;;;;19.08;90.61;100059.50;4989334;28;20199;-79
2022/07/17 07:25:48;;;;;;;3.87;1.23;;;;;;;19.27;86.22;100066.00;4992987;28;20200;-79
2022/07/17 07:28:17;;;;;;;3.87;1.43;;;;;;;19.34;85.92;100059.97;4991715;28;20221;-79
2022/07/17 07:30:45;;;;;;;6.30;1.30;;;;;;;19.30;85.08;100050.47;4992877;28;20673;-78
2022/07/17 07:33:13;;;;;;;4.97;1.20;;;;;;;19.57;82.05;100051.78;4990220;28;20221;-78
2022/07/17 07:35:42;;;;;;;4.93;1.43;;;;;;;19.78;81.84;100051.72;4992817;28;20227;-78
2022/07/17 07:38:11;;;;;;;5.77;1.47;;;;;;;19.85;82.54;100040.31;4985309;28;20272;-78
2022/07/17 07:40:41;;;;;;;2.90;1.10;;;;;;;19.45;79.82;100045.59;4988738;28;20223;-79
2022/07/17 07:43:09;;;;;;;2.50;1.20;;;;;;;19.49;79.99;100038.13;4991353;28;20223;-78
2022/07/17 07:45:38;;;;;;;3.40;1.23;;;;;;;19.62;77.94;100031.59;4989786;28;20674;-78
2022/07/17 07:48:06;;;;;;;5.07;1.10;;;;;;;19.93;75.94;100029.72;4987305;28;20240;-78
2022/07/17 07:50:35;;;;;;;2.33;1.17;;;;;;;19.88;76.49;100031.09;4989961;28;20222;-79
2022/07/17 07:53:03;;;;;;;4.03;1.30;;;;;;;19.84;76.46;100035.91;4989717;28;20199;-78
2022/07/17 07:55:33;;;;;;;4.00;1.27;;;;;;;19.90;77.52;100034.53;4987838;28;20203;-78
2022/07/17 07:58:07;;;;;;;4.40;1.30;;;;;;;20.06;76.99;100036.69;4986580;28;20207;-79
2022/07/17 08:00:35;;;;;;;3.13;1.00;;;;;;;20.36;74.03;100035.75;4989787;28;20319;-78
2022/07/17 08:03:04;;;;;;;2.50;1.23;;;;;;;20.28;73.49;100031.09;4989902;28;20188;-79
2022/07/17 08:05:33;;;;;;;3.35;1.25;;;;;;;20.41;71.88;100033.53;4992584;28;20314;-79
2022/07/17 08:08:01;;;;;;;3.10;1.55;;;;;;;20.62;71.82;100026.19;4990365;28;20278;-78
2022/07/17 08:10:30;;;;;;;3.47;1.30;;;;;;;20.62;70.92;100025.34;4992408;28;20227;-78
2022/07/17 08:12:58;;;;;;;5.90;1.27;;;;;;;20.88;68.84;100023.78;4992823;28;20215;-78
2022/07/17 08:15:28;;;;;;;4.93;1.33;;;;;;;20.82;68.12;100024.34;4990583;28;20572;-78
2022/07/17 08:17:56;;;;;;;3.45;1.27;;;;;;;20.66;66.39;100026.78;4985666;28;20211;-80
2022/07/17 08:20:25;;;;;;;5.47;1.33;;;;;;;20.82;67.89;100027.03;4988571;28;20203;-78
2022/07/17 08:22:53;;;;;;;6.00;1.20;;;;;;;21.21;64.96;100033.25;4988603;28;20274;-79
2022/07/17 08:25:33;;;;;;;4.78;1.17;;;;;;;21.32;64.21;100035.78;4994006;28;20195;-79
2022/07/17 08:28:04;;;;;;;6.63;1.70;;;;;;;21.36;64.80;100033.69;4990921;28;20209;-78
2022/07/17 08:30:36;;;;;;;3.42;1.20;;;;;;;21.63;63.12;100028.34;4989832;28;20278;-78
2022/07/17 08:33:05;;;;;;;4.63;1.23;;;;;;;21.94;58.52;100036.16;4991690;28;20210;-79
2022/07/17 08:35:34;;;;;;;3.63;1.40;;;;;;;21.61;55.80;100034.88;4989208;28;20196;-78
2022/07/17 08:38:03;;;;;;;2.35;1.30;;;;;;;22.09;56.59;100034.69;4987232;28;20215;-78
2022/07/17 08:40:33;;;;;;;5.15;1.58;;;;;;;22.13;56.61;100036.09;4986437;28;20662;-78
2022/07/17 08:43:04;;;;;;;3.10;1.20;;;;;;;22.16;55.17;100034.94;4987790;28;20227;-78
2022/07/17 08:45:32;;;;;;;3.08;1.20;;;;;;;21.95;55.52;100024.38;4989189;28;20203;-78
2022/07/17 08:48:04;;;;;;;2.97;1.50;;;;;;;22.22;53.55;100021.69;4988896;28;20252;-78
2022/07/17 08:50:34;;;;;;;4.10;1.83;;;;;;;22.70;51.85;100023.19;4988681;28;20206;-79
2022/07/17 08:53:04;;;;;;;4.60;1.10;;;;;;;22.03;52.49;100023.63;4988708;28;20210;-78
2022/07/17 08:55:33;;;;;;;3.88;1.10;;;;;;;21.94;53.44;100014.59;4988138;28;20201;-78
2022/07/17 08:58:02;;;;;;;2.10;1.10;;;;;;;21.64;52.95;100011.16;4984845;28;20210;-78
2022/07/17 09:00:30;;;;;;;5.53;1.48;;;;;;;21.90;52.58;100015.88;4996255;28;20203;-79
2022/07/17 09:03:01;;;;;;;2.40;0.90;;;;;;;22.43;52.06;100007.06;4987841;28;20223;-78
2022/07/17 09:05:33;;;;;;;3.50;1.10;;;;;;;22.71;50.99;100000.59;4993248;28;20191;-78
2022/07/17 09:08:02;;;;;;;3.13;1.20;;;;;;;22.78;49.80;99998.13;4991128;28;20199;-78
2022/07/17 09:10:32;;;;;;;4.20;1.10;;;;;;;22.39;50.89;100019.16;4991376;28;20226;-77
2022/07/17 09:13:01;;;;;;;3.95;1.45;;;;;;;22.42;50.67;100013.47;4990195;28;20203;-77
2022/07/17 09:15:30;;;;;;;3.78;1.10;;;;;;;22.92;48.81;100013.78;4992187;28;20202;-78
2022/07/17 09:17:58;;;;;;;3.00;1.17;;;;;;;22.93;47.44;100012.78;4991162;28;20233;-80
2022/07/17 09:20:26;;;;;;;1.67;0.90;;;;;;;22.95;46.85;100012.63;4989266;28;20665;-77
2022/07/17 09:23:00;;;;;;;2.30;1.00;;;;;;;23.42;46.24;100013.97;4989501;28;20306;-78
2022/07/17 09:25:36;;;;;;;2.47;1.15;;;;;;;23.14;46.88;100009.72;4986810;28;20206;-78
2022/07/17 09:28:06;;;;;;;2.63;1.13;;;;;;;23.80;44.32;100011.84;4989695;28;20202;-78
2022/07/17 09:30:36;;;;;;;2.92;1.00;;;;;;;23.76;43.97;100017.75;4985798;28;20199;-78
2022/07/17 09:33:08;;;;;;;4.88;1.20;;;;;;;23.86;43.25;100022.03;4991069;28;20195;-78
2022/07/17 09:35:45;;;;;;;4.88;1.15;;;;;;;23.86;43.26;100011.22;4994083;28;20214;-78
2022/07/17 09:38:26;;;;;;;3.30;1.00;;;;;;;23.95;42.39;100002.13;4988161;28;20296;-78
2022/07/17 09:41:12;;;;;;;2.60;0.95;;;;;;;23.92;44.27;100005.13;4986892;28;20634;-78
2022/07/17 09:43:44;;;;;;;3.75;1.05;;;;;;;23.48;43.82;99992.72;4986927;28;20202;-79
2022/07/17 09:46:18;;;;;;;3.33;1.20;;;;;;;24.09;42.31;99995.22;4990540;28;20278;-78
2022/07/17 09:48:49;;;;;;;3.45;1.00;;;;;;;24.19;42.06;99986.94;4984199;28;20207;-78
2022/07/17 09:51:20;;;;;;;3.45;1.20;;;;;;;24.57;41.90;99988.25;4990793;28;20238;-79
2022/07/17 09:53:52;;;;;;;1.65;1.08;;;;;;;24.84;40.57;99987.06;4992441;28;20199;-78
2022/07/17 09:56:21;;;;;;;1.90;0.93;;;;;;;25.17;39.75;99996.03;4984736;28;20218;-77
2022/07/17 09:58:52;;;;;;;2.50;1.13;;;;;;;25.26;38.33;99991.47;4990755;28;20219;-78
2022/07/17 10:01:21;;;;;;;2.50;1.20;;;;;;;25.21;38.79;99992.00;4984762;28;20199;-78
2022/07/17 10:03:53;;;;;;;1.77;1.08;;;;;;;25.46;38.07;99998.19;4986028;28;20274;-79
2022/07/17 10:06:23;;;;;;;1.75;0.93;;;;;;;25.53;38.55;99995.66;4986812;28;20248;-78
2022/07/17 10:08:57;;;;;;;3.42;1.10;;;;;;;25.62;38.42;100005.44;4988116;28;20327;-78
2022/07/17 10:11:28;;;;;;;2.60;1.30;;;;;;;25.56;38.38;100000.72;4990482;28;20739;-78
2022/07/17 10:14:03;;;;;;;4.03;1.25;;;;;;;24.84;39.85;100001.47;4990786;28;20199;-78
2022/07/17 10:16:33;;;;;;;2.63;1.13;;;;;;;25.24;39.19;100007.91;4991238;28;20202;-78
2022/07/17 10:19:17;;;;;;;3.47;0.90;;;;;;;25.82;38.84;100000.50;4990505;28;20227;-78
2022/07/17 10:21:58;;;;;;;3.30;1.20;;;;;;;25.80;36.91;100002.53;4990425;28;20382;-78
2022/07/17 10:24:29;;;;;;;2.25;1.00;;;;;;;26.08;34.52;100008.38;4990336;28;20195;-79
2022/07/17 10:26:58;;;;;;;1.77;1.00;;;;;;;26.28;34.89;100003.34;4993450;28;20218;-78
2022/07/17 10:29:35;;;;;;;3.63;1.20;;;;;;;26.30;36.01;100001.28;4984912;28;20207;-78
2022/07/17 10:32:16;;;;;;;2.35;1.00;;;;;;;26.65;36.01;100002.63;5036110;28;20202;-78
2022/07/17 10:34:47;;;;;;;4.10;1.10;;;;;;;26.63;36.05;100005.50;4987485;28;20203;-78
2022/07/17 10:37:21;;;;;;;3.60;1.10;;;;;;;26.13;35.20;100009.50;4983133;28;20304;-78
2022/07/17 10:39:56;;;;;;;4.75;1.17;;;;;;;26.47;35.44;100001.03;4989229;28;20199;-78
2022/07/17 10:42:57;;;;;;;2.95;1.15;;;;;;;26.44;36.65;99993.25;4985762;28;20704;-78
2022/07/17 10:45:34;;;;;;;4.43;1.50;;;;;;;26.19;36.65;99997.09;4988157;28;20211;-78
2022/07/17 10:48:05;;;;;;;4.53;1.27;;;;;;;26.53;36.55;99999.44;4993593;28;20203;-78
2022/07/17 10:50:36;;;;;;;3.53;1.30;;;;;;;26.96;35.46;99989.78;4987158;28;20286;-78
2022/07/17 10:53:07;;;;;;;1.67;1.08;;;;;;;27.11;35.42;99989.81;4986437;28;20195;-78
2022/07/17 10:55:40;;;;;;;3.38;1.33;;;;;;;27.15;35.01;99993.88;4986148;28;20213;-79
2022/07/17 10:58:17;;;;;;;2.75;1.40;;;;;;;27.47;34.64;99986.41;4988744;28;20219;-79
2022/07/17 11:00:57;;;;;;;4.13;1.13;;;;;;;26.70;34.38;99989.31;4986103;28;20199;-79
2022/07/17 11:03:25;;;;;;;3.78;1.10;;;;;;;28.09;33.72;99986.88;4989639;28;20258;-78
2022/07/17 11:05:53;;;;;;;3.70;1.20;;;;;;;28.28;33.71;99979.09;4986885;28;20196;-78
2022/07/17 11:08:21;;;;;;;2.95;1.00;;;;;;;28.20;33.26;99980.94;4986823;28;20195;-79
2022/07/17 11:10:52;;;;;;;3.38;1.10;;;;;;;27.71;32.29;99980.72;4989712;28;20796;-78
2022/07/17 11:13:21;;;;;;;2.35;1.15;;;;;;;28.19;32.70;99981.13;4989424;28;20203;-78
2022/07/17 11:15:50;;;;;;;1.52;0.80;;;;;;;28.34;31.99;99979.22;4990073;28;20653;-78
2022/07/17 11:18:20;;;;;;;2.55;1.10;;;;;;;28.43;33.56;99986.22;4985913;28;20203;-78
2022/07/17 11:20:53;;;;;;;2.25;1.08;;;;;;;28.04;32.98;99978.41;4992928;28;20203;-78
2022/07/17 11:23:23;;;;;;;1.75;1.10;;;;;;;28.03;32.68;99975.88;4992813;28;20222;-79
2022/07/17 11:26:08;;;;;;;2.05;1.08;;;;;;;28.41;31.74;99974.69;4992800;28;20206;-78
2022/07/17 11:28:39;;;;;;;2.55;1.10;;;;;;;28.71;31.63;99967.22;4987400;28;20207;-78
2022/07/17 11:31:20;;;;;;;2.90;1.40;;;;;;;28.33;31.07;99972.06;4987627;28;20655;-78
2022/07/17 11:33:54;;;;;;;2.45;1.30;;;;;;;28.55;30.93;99970.19;4986211;28;20198;-78
2022/07/17 11:36:25;;;;;;;1.52;0.98;;;;;;;27.64;32.43;99966.13;4992951;28;20199;-78